Time;durP1;ratioP1;P1;durP2;ratioP2;P2;SDS_P1;SDS_P2;PMS_P1;PMS_P2;Temp;Humidity;BMP_temperature;BMP_pressure;BME280_temperature;BME280_humidity;BME280_pressure;Samples;Min_cycle;Max_cycle;Signal;HPM_P1;HPM_P2
2021/08/01 15:12:00;;;;;;;;;;;;;;;;;;3504280;39;1498728;-76
2021/08/01 15:14:26;;;;;;;;;;;;;;;;;;3576808;39;114305;-75
2021/08/01 15:16:52;;;;;;;;;;;;;;;;;;3577655;39;112564;-73
2021/08/01 15:19:18;;;;;;;;;;;;;;;;;;3576725;39;112674;-76
2021/08/01 15:21:45;;;;;;;;;;;;;;;;;;3578213;39;113927;-75
2021/08/01 15:24:12;;;;;;;;;;;;;;;;;;3576836;39;112264;-75
2021/08/01 15:26:38;;;;;;;;;;;;;;;;;;3579317;39;113432;-73
2021/08/01 15:29:04;;;;;;;;;;;;;;;;;;3578321;39;114283;-73
2021/08/01 15:33:18;;;;;;;;;0.00;0.00;;;;;;;;3494102;39;1421190;-82
2021/08/01 15:35:46;;;;;;;;;1.00;1.00;;;;;;;;3534822;39;123793;-81
2021/08/01 15:38:14;;;;;;;;;0.67;0.00;;;;;;;;3564098;39;111959;-81
2021/08/01 15:40:40;;;;;;;;;0.00;0.00;;;;;;;;3565686;39;113280;-80
2021/08/01 15:43:07;;;;;;;;;0.00;0.00;;;;;;;;3567394;39;113906;-80
2021/08/01 15:45:34;;;;;;;;;3.00;3.00;;;;;;;;3563727;39;112239;-78
2021/08/01 15:48:01;;;;;;;;;2.67;1.67;;;;;;;;3566968;39;113168;-77
2021/08/01 15:50:30;;;;;;;;;2.67;2.33;;;;;;;;3565795;39;113827;-77
2021/08/01 15:53:04;;;;;;;;;2.67;0.00;;;;;;;;3569559;39;112224;-76
2021/08/01 15:55:33;;;;;;;;;0.00;0.00;;;;;;;;3565763;39;114158;-79
2021/08/01 15:58:03;;;;;;;;;3.00;0.00;;;;;;;;3566005;39;112356;-81
2021/08/01 16:00:31;;;;;;;;;0.00;0.00;;;;;;;;3565737;39;113332;-80
2021/08/01 16:03:13;;;;;;;;;0.00;0.00;;;;;;;;3565315;39;113873;-81
2021/08/01 16:05:44;;;;;;;;;0.00;0.00;;;;;;;;3563481;39;112483;-81
2021/08/01 16:08:15;;;;;;;;;0.33;0.33;;;;;;;;3565914;39;113402;-81
2021/08/01 16:10:42;;;;;;;;;1.67;1.00;;;;;;;;3566805;39;114540;-80
2021/08/01 16:13:10;;;;;;;;;0.00;0.00;;;;;;;;3565346;39;111808;-82
2021/08/01 16:15:38;;;;;;;;;2.00;1.00;;;;;;;;3566997;39;113299;-79
2021/08/01 16:18:06;;;;;;;;;2.00;1.00;;;;;;;;3564571;39;113217;-79
2021/08/01 16:20:33;;;;;;;;;3.33;2.00;;;;;;;;3566545;39;113205;-71
2021/08/01 16:23:02;;;;;;;;;1.00;1.00;;;;;;;;3565719;39;113858;-71
2021/08/01 16:25:28;;;;;;;;;2.00;1.00;;;;;;;;3565715;39;114534;-72
2021/08/01 16:27:55;;;;;;;;;1.00;1.00;;;;;;;;3566200;39;113206;-71
2021/08/01 16:30:23;;;;;;;;;2.00;1.00;;;;;;;;3565157;39;113866;-71
2021/08/01 16:32:50;;;;;;;;;5.00;2.00;;;;;;;;3565904;39;111973;-74
2021/08/01 16:35:19;;;;;;;;;2.00;2.00;;;;;;;;3567400;39;113368;-72
2021/08/01 16:37:46;;;;;;;;;3.00;1.00;;;;;;;;3567846;39;113880;-72
2021/08/01 16:40:14;;;;;;;;;2.00;2.00;;;;;;;;3565889;39;113402;-70
2021/08/01 16:42:51;;;;;;;;;0.00;0.00;;;;;;;;3562556;39;113863;-70
2021/08/01 16:45:19;;;;;;;;;2.00;1.00;;;;;;;;3557890;39;111875;-72
2021/08/01 16:47:48;;;;;;;;;1.00;1.00;;;;;;;;3558362;39;113348;-71
2021/08/01 16:50:18;;;;;;;;;1.00;1.00;;;;;;;;3558686;39;113937;-71
2021/08/01 16:52:49;;;;;;;;;1.00;1.00;;;;;;;;3558795;39;112013;-72
2021/08/01 16:55:21;;;;;;;;;3.67;2.00;;;;;;;;3555566;39;112460;-71
2021/08/01 16:58:07;;;;;;;;;1.00;1.00;;;;;;;;3558088;39;114438;-72
2021/08/01 17:00:34;;;;;;;;;2.00;0.00;;;;;;;;3561186;39;112296;-72
2021/08/01 17:03:06;;;;;;;;;2.00;1.00;;;;;;;;3553559;39;113029;-71
2021/08/01 17:05:34;;;;;;;;;1.00;1.00;;;;;;;;3558064;39;112329;-71
2021/08/01 17:08:07;;;;;;;;;1.00;1.00;;;;;;;;3559875;39;113576;-73
2021/08/01 17:10:39;;;;;;;;;1.33;1.33;;;;;;;;3555528;39;113073;-71
2021/08/01 17:13:06;;;;;;;;;2.33;2.00;;;;;;;;3555411;39;112219;-72
2021/08/01 17:15:33;;;;;;;;;1.00;1.00;;;;;;;;3556517;39;113438;-72
2021/08/01 17:17:59;;;;;;;;;2.00;1.00;;;;;;;;3556518;39;113923;-71
2021/08/01 17:20:26;;;;;;;;;3.00;1.00;;;;;;;;3556206;39;112657;-71
2021/08/01 17:22:53;;;;;;;;;2.33;1.00;;;;;;;;3560536;39;113237;-72
2021/08/01 17:25:23;;;;;;;;;2.33;1.33;;;;;;;;3558784;39;112048;-73
2021/08/01 17:27:51;;;;;;;;;1.00;1.00;;;;;;;;3557419;39;113358;-71
2021/08/01 17:30:19;;;;;;;;;1.00;1.00;;;;;;;;3553968;39;112996;-71
2021/08/01 17:32:47;;;;;;;;;1.00;1.00;;;;;;;;3556647;39;114549;-72
2021/08/01 17:35:14;;;;;;;;;1.00;1.00;;;;;;;;3556125;39;113737;-71
2021/08/01 17:37:43;;;;;;;;;0.67;0.00;;;;;;;;3559370;39;113865;-71
2021/08/01 17:40:14;;;;;;;;;2.00;1.00;;;;;;;;3558130;39;112482;-72
2021/08/01 17:42:42;;;;;;;;;2.33;2.00;;;;;;;;3560027;39;113425;-71
2021/08/01 17:45:10;;;;;;;;;3.00;2.00;;;;;;;;3562022;39;111746;-72
2021/08/01 17:47:37;;;;;;;;;2.00;1.00;;;;;;;;3556118;39;113603;-72
2021/08/01 17:50:04;;;;;;;;;1.33;1.33;;;;;;;;3557720;39;114156;-72
2021/08/01 17:52:31;;;;;;;;;3.67;2.00;;;;;;;;3559834;39;112011;-72
2021/08/01 17:55:01;;;;;;;;;3.00;2.00;;;;;;;;3557914;39;114214;-74
2021/08/01 17:57:28;;;;;;;;;2.00;2.00;;;;;;;;3557408;39;113455;-72
2021/08/01 17:59:54;;;;;;;;;2.33;2.00;;;;;;;;3558692;39;112445;-70
2021/08/01 18:02:23;;;;;;;;;4.67;2.00;;;;;;;;3559391;39;113356;-75
2021/08/01 18:04:49;;;;;;;;;3.67;2.00;;;;;;;;3560754;39;113843;-73
2021/08/01 18:07:18;;;;;;;;;3.00;2.67;;;;;;;;3557427;39;113676;-73
2021/08/01 18:09:47;;;;;;;;;8.00;8.00;;;;;;;;3559001;39;113889;-73
2021/08/01 18:12:15;;;;;;;;;5.67;3.67;;;;;;;;3558762;39;112221;-74
2021/08/01 18:14:46;;;;;;;;;4.33;3.00;;;;;;;;3557503;39;113389;-74
2021/08/01 18:17:14;;;;;;;;;4.00;3.33;;;;;;;;3558394;39;114164;-72
2021/08/01 18:19:43;;;;;;;;;3.00;3.00;;;;;;;;3559542;39;112058;-73
2021/08/01 18:22:12;;;;;;;;;2.00;2.00;;;;;;;;3556938;39;113326;-72
2021/08/01 18:24:43;;;;;;;;;2.00;2.00;;;;;;;;3560289;39;113856;-75
2021/08/01 18:27:09;;;;;;;;;3.33;2.67;;;;;;;;3561122;39;112383;-75
2021/08/01 18:29:36;;;;;;;;;5.33;3.00;;;;;;;;3559385;39;114556;-76
2021/08/01 18:32:04;;;;;;;;;3.00;3.00;;;;;;;;3558228;39;113280;-75
2021/08/01 18:34:30;;;;;;;;;3.00;3.00;;;;;;;;3558291;39;113797;-73
2021/08/01 18:36:58;;;;;;;;;3.00;3.00;;;;;;;;3555684;39;113233;-76
2021/08/01 18:39:26;;;;;;;;;3.00;2.33;;;;;;;;3558302;39;112184;-75
2021/08/01 18:41:55;;;;;;;;;4.33;4.00;;;;;;;;3559239;39;113802;-75
2021/08/01 18:44:24;;;;;;;;;3.67;3.33;;;;;;;;3558263;39;113776;-75
2021/08/01 18:46:51;;;;;;;;;4.67;3.00;;;;;;;;3558011;39;112033;-75
2021/08/01 18:49:18;;;;;;;;;3.00;2.00;;;;;;;;3559864;39;113208;-75
2021/08/01 18:51:45;;;;;;;;;2.00;2.00;;;;;;;;3558617;39;112280;-73
2021/08/01 18:54:15;;;;;;;;;3.00;3.00;;;;;;;;3557500;39;113215;-73
2021/08/01 18:56:42;;;;;;;;;4.00;4.00;;;;;;;;3557794;39;113856;-72
2021/08/01 18:59:09;;;;;;;;;4.33;3.00;;;;;;;;3558422;39;112675;-71
2021/08/01 19:01:35;;;;;;;;;3.33;2.00;;;;;;;;3557093;39;114316;-72
2021/08/01 19:04:03;;;;;;;;;3.00;3.00;;;;;;;;3557569;39;113869;-73
2021/08/01 19:06:30;;;;;;;;;2.00;2.00;;;;;;;;3554959;39;112128;-72
2021/08/01 19:08:58;;;;;;;;;4.00;3.33;;;;;;;;3556049;39;113557;-73
2021/08/01 19:11:26;;;;;;;;;6.00;3.33;;;;;;;;3559005;39;114326;-72
2021/08/01 19:13:53;;;;;;;;;4.67;3.00;;;;;;;;3556210;39;113235;-73
2021/08/01 19:28:23;;;;;;;;;7.00;4.67;;;;;;;;3512051;39;2679114;-72
2021/08/01 19:30:53;;;;;;;;;5.67;4.00;;;;;;;;3572409;39;112863;-73
2021/08/01 19:33:20;;;;;;;;;5.33;5.00;;;;;;;;3576565;39;112081;-74
2021/08/01 19:35:47;;;;;;;;;4.00;3.67;;;;;;;;3576400;39;113702;-73
2021/08/01 19:38:14;;;;;;;;;5.33;4.00;;;;;;;;3576792;39;113883;-74
2021/08/01 19:40:41;;;;;;;;;5.33;4.00;;;;;;;;3575809;39;113158;-75
2021/08/01 19:43:08;;;;;;;;;3.67;3.33;;;;;;;;3575676;39;113249;-76
2021/08/01 19:45:36;;;;;;;;;4.00;4.00;;;;;;;;3577060;39;113824;-72
2021/08/01 19:48:03;;;;;;;;;5.00;5.00;;;;;;;;3575191;39;111905;-73
2021/08/01 19:50:30;;;;;;;;;5.00;5.00;;;;;;;;3571856;39;113130;-78
2021/08/01 19:52:56;;;;;;;;;9.33;6.00;;;;;;;;3575756;39;111983;-73
2021/08/01 19:55:24;;;;;;;;;29.00;28.00;;;;;;;;3575472;39;113300;-74
2021/08/01 19:57:50;;;;;;;;;7.67;4.00;;;;;;;;3574129;39;114476;-74
2021/08/01 20:00:17;;;;;;;;;34.50;31.25;;;;;;;;3576558;39;111864;-78
2021/08/01 20:02:45;;;;;;;;;32.75;31.25;;;;;;;;3576120;39;113243;-76
2021/08/01 20:05:13;;;;;;;;;56.50;45.25;;;;;;;;3576420;39;114238;-78
2021/08/01 20:07:44;;;;;;;;;19.75;17.00;;;;;;;;3575350;39;113249;-79
2021/08/01 20:10:11;;;;;;;;;21.00;14.67;;;;;;;;3578424;39;113266;-77
2021/08/01 20:12:38;;;;;;;;;16.00;15.33;;;;;;;;3577011;39;112569;-75
2021/08/01 20:15:05;;;;;;;;;10.00;9.00;;;;;;;;3575592;39;113619;-75
2021/08/01 20:17:32;;;;;;;;;4.33;4.00;;;;;;;;3574922;39;114530;-72
2021/08/01 20:20:00;;;;;;;;;4.00;3.00;;;;;;;;3577308;39;111993;-72
2021/08/01 20:22:26;;;;;;;;;4.00;2.00;;;;;;;;3574481;39;112375;-72
2021/08/01 20:24:53;;;;;;;;;4.33;3.00;;;;;;;;3571250;39;113022;-72
2021/08/01 20:27:20;;;;;;;;;4.00;3.00;;;;;;;;3574534;39;112038;-70
2021/08/01 20:29:46;;;;;;;;;3.67;2.67;;;;;;;;3573004;39;112684;-68
2021/08/01 20:32:13;;;;;;;;;5.00;2.67;;;;;;;;3578384;39;113970;-69
2021/08/01 20:34:40;;;;;;;;;5.67;4.00;;;;;;;;3571674;39;112288;-68
2021/08/01 20:37:08;;;;;;;;;5.67;4.00;;;;;;;;3576734;39;113820;-68
2021/08/01 20:39:34;;;;;;;;;6.00;5.00;;;;;;;;3564062;39;111865;-69
2021/08/01 20:42:01;;;;;;;;;4.00;3.00;;;;;;;;3563628;39;112377;-70
2021/08/01 20:44:27;;;;;;;;;4.67;4.67;;;;;;;;3567527;39;112998;-72
2021/08/01 20:46:55;;;;;;;;;4.00;3.00;;;;;;;;3568907;39;111999;-73
2021/08/01 20:49:21;;;;;;;;;7.00;5.00;;;;;;;;3508134;39;112544;-75
2021/08/01 20:51:48;;;;;;;;;5.67;2.33;;;;;;;;3546815;39;113878;-79
2021/08/01 20:54:16;;;;;;;;;5.00;5.00;;;;;;;;3552924;39;112013;-75
2021/08/01 20:56:43;;;;;;;;;7.00;4.00;;;;;;;;3548066;39;114032;-73
2021/08/01 20:59:09;;;;;;;;;5.00;3.00;;;;;;;;3547544;39;113111;-76
2021/08/01 21:01:36;;;;;;;;;4.00;3.67;;;;;;;;3548924;39;113235;-75
2021/08/01 21:04:04;;;;;;;;;4.00;4.00;;;;;;;;3545704;39;114138;-75
2021/08/01 21:06:30;;;;;;;;;7.67;4.00;;;;;;;;3548375;39;112681;-77
2021/08/01 21:08:57;;;;;;;;;4.00;3.00;;;;;;;;3551102;39;113764;-77
2021/08/01 21:11:25;;;;;;;;;3.33;3.33;;;;;;;;3549498;39;114361;-75
2021/08/01 21:13:51;;;;;;;;;7.00;4.00;;;;;;;;3548980;39;112674;-73
2021/08/01 21:16:18;;;;;;;;;4.00;3.33;;;;;;;;3548426;39;112073;-76
2021/08/01 21:18:44;;;;;;;;;6.00;3.67;;;;;;;;3548644;39;112523;-76
2021/08/01 21:21:11;;;;;;;;;3.00;3.00;;;;;;;;3549876;39;113229;-75
2021/08/01 21:23:38;;;;;;;;;5.00;4.67;;;;;;;;3546771;39;113846;-73
2021/08/01 21:26:05;;;;;;;;;3.33;3.00;;;;;;;;3545659;39;111990;-74
2021/08/01 21:28:33;;;;;;;;;7.33;4.33;;;;;;;;3549430;39;113307;-75
2021/08/01 21:30:59;;;;;;;;;6.33;3.67;;;;;;;;3547996;39;113726;-73
2021/08/01 21:33:26;;;;;;;;;5.67;3.67;;;;;;;;3549444;39;112047;-73
2021/08/01 21:35:52;;;;;;;;;3.00;3.00;;;;;;;;3549216;39;113226;-73
2021/08/01 21:38:19;;;;;;;;;5.00;3.67;;;;;;;;3553740;39;112961;-86
2021/08/01 21:40:46;;;;;;;;;5.67;4.00;;;;;;;;3549361;39;113574;-74
2021/08/01 21:43:12;;;;;;;;;3.00;2.33;;;;;;;;3546663;39;113034;-72
2021/08/01 21:45:40;;;;;;;;;3.33;3.00;;;;;;;;3546891;39;113183;-71
2021/08/01 21:48:07;;;;;;;;;9.00;4.67;;;;;;;;3546652;39;112215;-71
2021/08/01 21:50:33;;;;;;;;;4.00;4.00;;;;;;;;3548736;39;114615;-74
2021/08/01 21:53:00;;;;;;;;;5.33;4.00;;;;;;;;3548554;39;112219;-78
2021/08/01 21:55:26;;;;;;;;;5.00;3.00;;;;;;;;3548770;39;113199;-75
2021/08/01 21:57:53;;;;;;;;;5.00;3.00;;;;;;;;3547706;39;113433;-76
2021/08/01 22:00:20;;;;;;;;;4.33;3.33;;;;;;;;3549259;39;113238;-75
2021/08/01 22:02:49;;;;;;;;;3.75;3.75;;;;;;;;3546361;39;113212;-76
2021/08/01 22:05:16;;;;;;;;;7.25;4.00;;;;;;;;3549728;39;112579;-76
2021/08/01 22:07:45;;;;;;;;;5.00;3.00;;;;;;;;3548796;39;113237;-76
2021/08/01 22:10:12;;;;;;;;;6.67;3.67;;;;;;;;3548661;39;114242;-77
2021/08/01 22:12:40;;;;;;;;;5.75;4.00;;;;;;;;3524373;39;112166;-75
2021/08/01 22:15:08;;;;;;;;;4.75;3.00;;;;;;;;3550239;39;114377;-75
2021/08/01 22:17:34;;;;;;;;;4.75;3.00;;;;;;;;3547378;39;113783;-75
2021/08/01 22:20:02;;;;;;;;;6.25;5.00;;;;;;;;3552866;39;113297;-76
2021/08/01 22:22:29;;;;;;;;;5.00;3.50;;;;;;;;3546617;39;114392;-76
2021/08/01 22:24:56;;;;;;;;;4.00;4.00;;;;;;;;3548807;39;112210;-75
2021/08/01 22:27:24;;;;;;;;;3.00;3.00;;;;;;;;3547773;39;113106;-75
2021/08/01 22:29:53;;;;;;;;;5.00;3.00;;;;;;;;3548307;39;113750;-75
2021/08/01 22:32:19;;;;;;;;;4.50;3.00;;;;;;;;3548229;39;112126;-75
2021/08/01 22:34:46;;;;;;;;;5.50;3.75;;;;;;;;3547457;39;112849;-75
2021/08/01 22:37:14;;;;;;;;;5.00;4.00;;;;;;;;3548638;39;114561;-75
2021/08/01 22:39:46;;;;;;;;;5.50;4.00;;;;;;;;3548520;39;111975;-75
2021/08/01 22:42:14;;;;;;;;;9.50;5.00;;;;;;;;3551425;39;113367;-75
2021/08/01 22:44:40;;;;;;;;;7.00;4.00;;;;;;;;3548255;39;111918;-75
2021/08/01 22:47:07;;;;;;;;;5.00;5.00;;;;;;;;3549496;39;113037;-74
2021/08/01 22:49:35;;;;;;;;;4.75;4.00;;;;;;;;3545588;39;113134;-75
2021/08/01 22:52:03;;;;;;;;;4.75;3.25;;;;;;;;3547979;39;111748;-74
2021/08/01 22:54:31;;;;;;;;;7.50;5.25;;;;;;;;3549865;39;113242;-74
2021/08/01 22:56:57;;;;;;;;;6.75;6.00;;;;;;;;3547647;39;113827;-73
2021/08/01 22:59:24;;;;;;;;;5.25;4.50;;;;;;;;3549196;39;113115;-74
2021/08/01 23:01:52;;;;;;;;;5.75;2.75;;;;;;;;3548181;39;113245;-74
2021/08/01 23:04:24;;;;;;;;;5.00;5.00;;;;;;;;3550966;39;113793;-72
2021/08/01 23:06:52;;;;;;;;;4.75;3.25;;;;;;;;3548183;39;113234;-73
2021/08/01 23:09:19;;;;;;;;;3.75;3.50;;;;;;;;3548185;39;114080;-73
2021/08/01 23:11:51;;;;;;;;;4.00;3.00;;;;;;;;3548588;39;111898;-72
2021/08/01 23:14:23;;;;;;;;;5.00;3.00;;;;;;;;3548809;39;113613;-73
2021/08/01 23:17:14;;;;;;;;;5.00;5.00;;;;;;;;3547852;39;113897;-73
2021/08/01 23:19:46;;;;;;;;;4.75;3.75;;;;;;;;3539190;39;111977;-73
2021/08/01 23:22:13;;;;;;;;;4.25;3.00;;;;;;;;3548389;39;113338;-74
2021/08/01 23:24:46;;;;;;;;;5.00;4.00;;;;;;;;3548634;39;113852;-73
2021/08/01 23:27:16;;;;;;;;;8.75;4.00;;;;;;;;3551204;39;111841;-73
2021/08/01 23:29:44;;;;;;;;;6.25;3.00;;;;;;;;3548117;39;114436;-73
2021/08/01 23:32:11;;;;;;;;;5.75;4.25;;;;;;;;3547997;39;111977;-74
2021/08/01 23:34:40;;;;;;;;;3.00;3.00;;;;;;;;3549142;39;113427;-73
2021/08/01 23:37:08;;;;;;;;;6.00;4.00;;;;;;;;3547279;39;113827;-72
2021/08/01 23:39:35;;;;;;;;;1.50;1.50;;;;;;;;3549222;39;112372;-73
2021/08/01 23:42:02;;;;;;;;;3.75;3.75;;;;;;;;3547649;39;113462;-73
2021/08/01 23:44:30;;;;;;;;;4.75;4.00;;;;;;;;3548923;39;114348;-73
2021/08/01 23:47:00;;;;;;;;;3.33;2.33;;;;;;;;3550004;39;112134;-73
2021/08/01 23:49:28;;;;;;;;;2.00;2.00;;;;;;;;3548515;39;114770;-73
2021/08/01 23:51:58;;;;;;;;;3.00;3.00;;;;;;;;3547730;39;111990;-73
2021/08/01 23:54:31;;;;;;;;;3.25;3.25;;;;;;;;3549003;39;113660;-73
2021/08/01 23:57:04;;;;;;;;;5.00;4.00;;;;;;;;3546167;39;113152;-73
2021/08/01 23:59:39;;;;;;;;;8.25;3.75;;;;;;;;3543851;39;111840;-73
